sensor_id;sensor_type;location;lat;lon;timestamp;P1;durP1;ratioP1;P2;durP2;ratioP2
8337;SDS011;4206;48.634;9.516;2022-12-07T00:01:29;5.57;;;4.33;;
8337;SDS011;4206;48.634;9.516;2022-12-07T00:03:56;8.53;;;5.63;;
8337;SDS011;4206;48.634;9.516;2022-12-07T00:06:25;5.80;;;5.20;;
8337;SDS011;4206;48.634;9.516;2022-12-07T00:08:51;9.60;;;4.97;;
8337;SDS011;4206;48.634;9.516;2022-12-07T00:11:18;7.50;;;5.23;;
8337;SDS011;4206;48.634;9.516;2022-12-07T00:13:45;6.23;;;5.13;;
8337;SDS011;4206;48.634;9.516;2022-12-07T00:16:14;6.77;;;5.23;;
8337;SDS011;4206;48.634;9.516;2022-12-07T00:18:41;6.80;;;5.00;;
8337;SDS011;4206;48.634;9.516;2022-12-07T00:21:09;9.70;;;5.40;;
8337;SDS011;4206;48.634;9.516;2022-12-07T00:23:35;7.33;;;4.90;;
8337;SDS011;4206;48.634;9.516;2022-12-07T00:26:06;8.63;;;5.37;;
8337;SDS011;4206;48.634;9.516;2022-12-07T00:28:32;7.33;;;5.30;;
8337;SDS011;4206;48.634;9.516;2022-12-07T00:31:00;6.60;;;5.30;;
8337;SDS011;4206;48.634;9.516;2022-12-07T00:33:26;7.67;;;5.43;;
8337;SDS011;4206;48.634;9.516;2022-12-07T00:35:55;6.23;;;4.60;;
8337;SDS011;4206;48.634;9.516;2022-12-07T00:38:21;6.67;;;5.10;;
8337;SDS011;4206;48.634;9.516;2022-12-07T00:40:56;7.20;;;4.97;;
8337;SDS011;4206;48.634;9.516;2022-12-07T00:43:23;11.23;;;5.70;;
8337;SDS011;4206;48.634;9.516;2022-12-07T00:45:49;10.40;;;5.50;;
8337;SDS011;4206;48.634;9.516;2022-12-07T00:48:15;6.00;;;4.50;;
8337;SDS011;4206;48.634;9.516;2022-12-07T00:50:41;6.87;;;5.10;;
8337;SDS011;4206;48.634;9.516;2022-12-07T00:53:07;6.10;;;5.07;;
8337;SDS011;4206;48.634;9.516;2022-12-07T00:55:33;6.60;;;5.30;;
8337;SDS011;4206;48.634;9.516;2022-12-07T00:57:59;10.60;;;5.90;;
8337;SDS011;4206;48.634;9.516;2022-12-07T01:00:25;10.47;;;6.10;;
8337;SDS011;4206;48.634;9.516;2022-12-07T01:02:51;11.10;;;6.20;;
8337;SDS011;4206;48.634;9.516;2022-12-07T01:05:18;10.63;;;6.00;;
8337;SDS011;4206;48.634;9.516;2022-12-07T01:07:44;8.77;;;5.97;;
8337;SDS011;4206;48.634;9.516;2022-12-07T01:10:11;10.53;;;6.43;;
8337;SDS011;4206;48.634;9.516;2022-12-07T01:12:37;10.20;;;6.30;;
8337;SDS011;4206;48.634;9.516;2022-12-07T01:15:03;13.20;;;7.70;;
8337;SDS011;4206;48.634;9.516;2022-12-07T01:17:30;14.77;;;7.53;;
8337;SDS011;4206;48.634;9.516;2022-12-07T01:19:56;8.70;;;5.83;;
8337;SDS011;4206;48.634;9.516;2022-12-07T01:22:22;9.93;;;5.93;;
8337;SDS011;4206;48.634;9.516;2022-12-07T01:24:48;10.60;;;5.53;;
8337;SDS011;4206;48.634;9.516;2022-12-07T01:27:14;9.67;;;6.40;;
8337;SDS011;4206;48.634;9.516;2022-12-07T01:29:40;12.67;;;7.10;;
8337;SDS011;4206;48.634;9.516;2022-12-07T01:32:06;8.27;;;5.80;;
8337;SDS011;4206;48.634;9.516;2022-12-07T01:34:32;9.30;;;5.80;;
8337;SDS011;4206;48.634;9.516;2022-12-07T01:36:58;9.70;;;6.23;;
8337;SDS011;4206;48.634;9.516;2022-12-07T01:39:24;10.53;;;6.60;;
8337;SDS011;4206;48.634;9.516;2022-12-07T01:41:52;8.30;;;5.50;;
8337;SDS011;4206;48.634;9.516;2022-12-07T01:44:26;7.70;;;5.40;;
8337;SDS011;4206;48.634;9.516;2022-12-07T01:46:55;10.33;;;6.17;;
8337;SDS011;4206;48.634;9.516;2022-12-07T01:49:24;10.27;;;5.70;;
8337;SDS011;4206;48.634;9.516;2022-12-07T01:51:52;8.43;;;5.97;;
8337;SDS011;4206;48.634;9.516;2022-12-07T01:54:20;8.30;;;5.40;;
8337;SDS011;4206;48.634;9.516;2022-12-07T01:56:48;8.50;;;6.13;;
8337;SDS011;4206;48.634;9.516;2022-12-07T01:59:16;9.50;;;6.33;;
8337;SDS011;4206;48.634;9.516;2022-12-07T02:01:43;12.20;;;6.80;;
8337;SDS011;4206;48.634;9.516;2022-12-07T02:04:09;9.13;;;6.40;;
8337;SDS011;4206;48.634;9.516;2022-12-07T02:06:35;11.30;;;6.90;;
8337;SDS011;4206;48.634;9.516;2022-12-07T02:09:02;11.30;;;6.40;;
8337;SDS011;4206;48.634;9.516;2022-12-07T02:11:28;11.50;;;7.03;;
8337;SDS011;4206;48.634;9.516;2022-12-07T02:13:54;13.97;;;8.30;;
8337;SDS011;4206;48.634;9.516;2022-12-07T02:16:23;15.00;;;8.20;;
8337;SDS011;4206;48.634;9.516;2022-12-07T02:26:19;11.03;;;7.37;;
8337;SDS011;4206;48.634;9.516;2022-12-07T02:31:31;18.50;;;9.47;;
8337;SDS011;4206;48.634;9.516;2022-12-07T02:34:01;15.03;;;8.40;;
8337;SDS011;4206;48.634;9.516;2022-12-07T02:36:30;12.10;;;8.03;;
8337;SDS011;4206;48.634;9.516;2022-12-07T02:39:00;12.90;;;8.10;;
8337;SDS011;4206;48.634;9.516;2022-12-07T02:41:28;12.80;;;8.00;;
8337;SDS011;4206;48.634;9.516;2022-12-07T02:43:56;14.40;;;8.93;;
8337;SDS011;4206;48.634;9.516;2022-12-07T02:46:24;15.73;;;9.57;;
8337;SDS011;4206;48.634;9.516;2022-12-07T02:48:51;17.53;;;9.27;;
8337;SDS011;4206;48.634;9.516;2022-12-07T02:51:18;17.20;;;8.73;;
8337;SDS011;4206;48.634;9.516;2022-12-07T02:53:44;16.90;;;9.67;;
8337;SDS011;4206;48.634;9.516;2022-12-07T02:58:43;12.63;;;7.97;;
8337;SDS011;4206;48.634;9.516;2022-12-07T03:01:18;13.70;;;8.13;;
8337;SDS011;4206;48.634;9.516;2022-12-07T03:03:48;13.60;;;8.40;;
8337;SDS011;4206;48.634;9.516;2022-12-07T03:06:20;12.57;;;8.30;;
8337;SDS011;4206;48.634;9.516;2022-12-07T03:08:50;17.30;;;9.77;;
8337;SDS011;4206;48.634;9.516;2022-12-07T03:16:15;13.83;;;9.17;;
8337;SDS011;4206;48.634;9.516;2022-12-07T03:18:44;13.40;;;8.87;;
8337;SDS011;4206;48.634;9.516;2022-12-07T03:21:13;17.33;;;10.07;;
8337;SDS011;4206;48.634;9.516;2022-12-07T03:23:40;15.57;;;10.00;;
8337;SDS011;4206;48.634;9.516;2022-12-07T03:26:08;17.67;;;9.20;;
8337;SDS011;4206;48.634;9.516;2022-12-07T03:28:36;15.50;;;9.27;;
8337;SDS011;4206;48.634;9.516;2022-12-07T03:31:10;16.20;;;9.17;;
8337;SDS011;4206;48.634;9.516;2022-12-07T03:33:40;13.93;;;9.00;;
8337;SDS011;4206;48.634;9.516;2022-12-07T03:36:12;14.13;;;9.80;;
8337;SDS011;4206;48.634;9.516;2022-12-07T03:38:42;13.93;;;9.03;;
8337;SDS011;4206;48.634;9.516;2022-12-07T03:41:12;16.57;;;9.63;;
8337;SDS011;4206;48.634;9.516;2022-12-07T03:43:40;15.83;;;9.23;;
8337;SDS011;4206;48.634;9.516;2022-12-07T03:48:39;14.00;;;9.43;;
8337;SDS011;4206;48.634;9.516;2022-12-07T03:51:18;17.37;;;10.30;;
8337;SDS011;4206;48.634;9.516;2022-12-07T03:53:46;15.77;;;10.40;;
8337;SDS011;4206;48.634;9.516;2022-12-07T03:56:14;14.50;;;9.23;;
8337;SDS011;4206;48.634;9.516;2022-12-07T03:58:41;14.97;;;9.87;;
8337;SDS011;4206;48.634;9.516;2022-12-07T04:01:07;13.60;;;8.60;;
8337;SDS011;4206;48.634;9.516;2022-12-07T04:03:33;18.90;;;10.57;;
8337;SDS011;4206;48.634;9.516;2022-12-07T04:05:59;17.93;;;10.33;;
8337;SDS011;4206;48.634;9.516;2022-12-07T04:08:25;18.37;;;10.53;;
8337;SDS011;4206;48.634;9.516;2022-12-07T04:10:51;16.00;;;11.10;;
8337;SDS011;4206;48.634;9.516;2022-12-07T04:13:17;16.93;;;10.07;;
8337;SDS011;4206;48.634;9.516;2022-12-07T04:15:43;17.07;;;10.13;;
8337;SDS011;4206;48.634;9.516;2022-12-07T04:18:09;18.40;;;10.97;;
8337;SDS011;4206;48.634;9.516;2022-12-07T04:20:35;19.00;;;10.93;;
8337;SDS011;4206;48.634;9.516;2022-12-07T04:23:01;20.27;;;11.07;;
8337;SDS011;4206;48.634;9.516;2022-12-07T04:25:27;19.10;;;10.57;;
8337;SDS011;4206;48.634;9.516;2022-12-07T04:27:53;18.53;;;9.50;;
8337;SDS011;4206;48.634;9.516;2022-12-07T04:30:19;20.90;;;10.40;;
8337;SDS011;4206;48.634;9.516;2022-12-07T04:32:45;20.07;;;10.87;;
8337;SDS011;4206;48.634;9.516;2022-12-07T04:35:11;16.93;;;10.27;;
8337;SDS011;4206;48.634;9.516;2022-12-07T04:37:37;15.70;;;9.60;;
8337;SDS011;4206;48.634;9.516;2022-12-07T04:40:05;21.93;;;12.03;;
8337;SDS011;4206;48.634;9.516;2022-12-07T04:42:32;19.30;;;11.30;;
8337;SDS011;4206;48.634;9.516;2022-12-07T04:44:58;18.07;;;10.87;;
8337;SDS011;4206;48.634;9.516;2022-12-07T04:47:24;18.63;;;11.00;;
8337;SDS011;4206;48.634;9.516;2022-12-07T04:49:50;17.50;;;10.17;;
8337;SDS011;4206;48.634;9.516;2022-12-07T04:52:16;16.37;;;9.37;;
8337;SDS011;4206;48.634;9.516;2022-12-07T04:54:42;17.50;;;9.93;;
8337;SDS011;4206;48.634;9.516;2022-12-07T04:57:08;19.60;;;11.07;;
8337;SDS011;4206;48.634;9.516;2022-12-07T04:59:34;15.73;;;10.07;;
8337;SDS011;4206;48.634;9.516;2022-12-07T05:02:00;14.60;;;9.20;;
8337;SDS011;4206;48.634;9.516;2022-12-07T05:04:26;24.20;;;14.03;;
8337;SDS011;4206;48.634;9.516;2022-12-07T05:06:52;21.57;;;11.17;;
8337;SDS011;4206;48.634;9.516;2022-12-07T05:09:18;18.77;;;10.20;;
8337;SDS011;4206;48.634;9.516;2022-12-07T05:11:45;17.90;;;10.90;;
8337;SDS011;4206;48.634;9.516;2022-12-07T05:14:13;16.53;;;10.50;;
8337;SDS011;4206;48.634;9.516;2022-12-07T05:16:40;16.87;;;10.10;;
8337;SDS011;4206;48.634;9.516;2022-12-07T05:19:06;18.63;;;10.20;;
8337;SDS011;4206;48.634;9.516;2022-12-07T05:21:33;18.13;;;9.70;;
8337;SDS011;4206;48.634;9.516;2022-12-07T05:23:59;18.97;;;10.90;;
8337;SDS011;4206;48.634;9.516;2022-12-07T05:26:25;18.43;;;10.00;;
8337;SDS011;4206;48.634;9.516;2022-12-07T05:28:51;22.77;;;13.00;;
8337;SDS011;4206;48.634;9.516;2022-12-07T05:31:17;25.33;;;13.27;;
8337;SDS011;4206;48.634;9.516;2022-12-07T05:33:44;21.13;;;11.90;;
8337;SDS011;4206;48.634;9.516;2022-12-07T05:36:10;20.23;;;11.60;;
8337;SDS011;4206;48.634;9.516;2022-12-07T05:38:36;24.60;;;12.90;;
8337;SDS011;4206;48.634;9.516;2022-12-07T05:41:03;18.87;;;10.60;;
8337;SDS011;4206;48.634;9.516;2022-12-07T05:43:29;22.63;;;12.07;;
8337;SDS011;4206;48.634;9.516;2022-12-07T05:45:56;20.50;;;10.80;;
8337;SDS011;4206;48.634;9.516;2022-12-07T05:48:22;19.70;;;11.20;;
8337;SDS011;4206;48.634;9.516;2022-12-07T05:50:48;18.17;;;11.63;;
8337;SDS011;4206;48.634;9.516;2022-12-07T05:53:15;23.37;;;11.37;;
8337;SDS011;4206;48.634;9.516;2022-12-07T05:55:41;21.37;;;12.00;;
8337;SDS011;4206;48.634;9.516;2022-12-07T05:58:07;22.90;;;12.30;;
8337;SDS011;4206;48.634;9.516;2022-12-07T06:00:49;21.33;;;11.40;;
8337;SDS011;4206;48.634;9.516;2022-12-07T06:03:15;21.70;;;11.33;;
8337;SDS011;4206;48.634;9.516;2022-12-07T06:05:41;21.10;;;11.50;;
8337;SDS011;4206;48.634;9.516;2022-12-07T06:08:07;25.03;;;10.47;;
8337;SDS011;4206;48.634;9.516;2022-12-07T06:10:33;21.53;;;10.87;;
8337;SDS011;4206;48.634;9.516;2022-12-07T06:12:59;19.33;;;11.67;;
8337;SDS011;4206;48.634;9.516;2022-12-07T06:15:25;21.23;;;11.07;;
8337;SDS011;4206;48.634;9.516;2022-12-07T06:17:51;20.50;;;12.00;;
8337;SDS011;4206;48.634;9.516;2022-12-07T06:20:17;25.93;;;13.70;;
8337;SDS011;4206;48.634;9.516;2022-12-07T06:22:43;28.73;;;15.40;;
8337;SDS011;4206;48.634;9.516;2022-12-07T06:25:09;28.73;;;14.90;;
8337;SDS011;4206;48.634;9.516;2022-12-07T06:27:35;27.43;;;14.83;;
8337;SDS011;4206;48.634;9.516;2022-12-07T06:30:01;27.13;;;14.80;;
8337;SDS011;4206;48.634;9.516;2022-12-07T06:32:31;27.47;;;14.23;;
8337;SDS011;4206;48.634;9.516;2022-12-07T06:34:57;25.73;;;14.03;;
8337;SDS011;4206;48.634;9.516;2022-12-07T06:37:23;22.30;;;12.83;;
8337;SDS011;4206;48.634;9.516;2022-12-07T06:39:49;30.20;;;12.47;;
8337;SDS011;4206;48.634;9.516;2022-12-07T06:42:15;23.37;;;13.57;;
8337;SDS011;4206;48.634;9.516;2022-12-07T06:44:41;26.03;;;12.60;;
8337;SDS011;4206;48.634;9.516;2022-12-07T06:47:07;24.30;;;12.00;;
8337;SDS011;4206;48.634;9.516;2022-12-07T06:49:34;20.70;;;11.57;;
8337;SDS011;4206;48.634;9.516;2022-12-07T06:52:00;24.00;;;12.03;;
8337;SDS011;4206;48.634;9.516;2022-12-07T06:54:26;23.50;;;13.33;;
8337;SDS011;4206;48.634;9.516;2022-12-07T06:56:55;26.63;;;13.60;;
8337;SDS011;4206;48.634;9.516;2022-12-07T06:59:21;23.30;;;13.53;;
8337;SDS011;4206;48.634;9.516;2022-12-07T07:01:47;25.10;;;13.40;;
8337;SDS011;4206;48.634;9.516;2022-12-07T07:04:13;24.00;;;12.77;;
8337;SDS011;4206;48.634;9.516;2022-12-07T07:06:39;21.60;;;11.37;;
8337;SDS011;4206;48.634;9.516;2022-12-07T07:09:05;21.33;;;12.23;;
8337;SDS011;4206;48.634;9.516;2022-12-07T07:11:31;22.80;;;12.30;;
8337;SDS011;4206;48.634;9.516;2022-12-07T07:13:57;21.87;;;11.60;;
8337;SDS011;4206;48.634;9.516;2022-12-07T07:16:27;21.93;;;11.63;;
8337;SDS011;4206;48.634;9.516;2022-12-07T07:18:53;19.20;;;10.73;;
8337;SDS011;4206;48.634;9.516;2022-12-07T07:21:19;18.70;;;10.77;;
8337;SDS011;4206;48.634;9.516;2022-12-07T07:23:45;19.67;;;11.37;;
8337;SDS011;4206;48.634;9.516;2022-12-07T07:26:11;19.97;;;10.17;;
8337;SDS011;4206;48.634;9.516;2022-12-07T07:28:37;17.50;;;9.80;;
8337;SDS011;4206;48.634;9.516;2022-12-07T07:31:03;21.97;;;11.00;;
8337;SDS011;4206;48.634;9.516;2022-12-07T07:33:29;22.67;;;10.67;;
8337;SDS011;4206;48.634;9.516;2022-12-07T07:35:55;18.90;;;10.57;;
8337;SDS011;4206;48.634;9.516;2022-12-07T07:38:21;21.13;;;9.93;;
8337;SDS011;4206;48.634;9.516;2022-12-07T07:40:47;21.40;;;10.43;;
8337;SDS011;4206;48.634;9.516;2022-12-07T07:43:13;17.30;;;10.00;;
8337;SDS011;4206;48.634;9.516;2022-12-07T07:45:39;20.13;;;9.80;;
8337;SDS011;4206;48.634;9.516;2022-12-07T07:48:05;17.63;;;9.90;;
8337;SDS011;4206;48.634;9.516;2022-12-07T07:50:31;15.00;;;9.30;;
8337;SDS011;4206;48.634;9.516;2022-12-07T07:52:57;15.37;;;8.30;;
8337;SDS011;4206;48.634;9.516;2022-12-07T07:55:23;16.87;;;9.57;;
8337;SDS011;4206;48.634;9.516;2022-12-07T07:57:49;13.30;;;7.90;;
8337;SDS011;4206;48.634;9.516;2022-12-07T08:00:16;14.57;;;9.37;;
8337;SDS011;4206;48.634;9.516;2022-12-07T08:02:42;12.80;;;8.10;;
8337;SDS011;4206;48.634;9.516;2022-12-07T08:05:08;20.70;;;10.83;;
8337;SDS011;4206;48.634;9.516;2022-12-07T08:07:35;15.80;;;8.83;;
8337;SDS011;4206;48.634;9.516;2022-12-07T08:10:01;15.77;;;8.20;;
8337;SDS011;4206;48.634;9.516;2022-12-07T08:12:27;12.60;;;8.03;;
8337;SDS011;4206;48.634;9.516;2022-12-07T08:14:53;14.80;;;8.00;;
8337;SDS011;4206;48.634;9.516;2022-12-07T08:17:19;17.03;;;8.37;;
8337;SDS011;4206;48.634;9.516;2022-12-07T08:19:45;14.47;;;7.73;;
8337;SDS011;4206;48.634;9.516;2022-12-07T08:22:11;12.40;;;8.20;;
8337;SDS011;4206;48.634;9.516;2022-12-07T08:24:37;14.90;;;7.80;;
8337;SDS011;4206;48.634;9.516;2022-12-07T08:27:03;14.33;;;8.07;;
8337;SDS011;4206;48.634;9.516;2022-12-07T08:29:29;13.53;;;8.07;;
8337;SDS011;4206;48.634;9.516;2022-12-07T08:31:55;11.20;;;7.10;;
8337;SDS011;4206;48.634;9.516;2022-12-07T08:34:21;22.07;;;7.63;;
8337;SDS011;4206;48.634;9.516;2022-12-07T08:36:47;16.80;;;7.97;;
8337;SDS011;4206;48.634;9.516;2022-12-07T08:39:13;14.47;;;8.20;;
8337;SDS011;4206;48.634;9.516;2022-12-07T08:41:39;13.00;;;7.27;;
8337;SDS011;4206;48.634;9.516;2022-12-07T08:47:11;25.90;;;8.00;;
8337;SDS011;4206;48.634;9.516;2022-12-07T08:49:39;13.87;;;7.50;;
8337;SDS011;4206;48.634;9.516;2022-12-07T08:52:06;11.23;;;7.57;;
8337;SDS011;4206;48.634;9.516;2022-12-07T08:54:33;15.10;;;8.43;;
8337;SDS011;4206;48.634;9.516;2022-12-07T08:56:59;11.70;;;7.77;;
8337;SDS011;4206;48.634;9.516;2022-12-07T08:59:25;11.47;;;7.07;;
8337;SDS011;4206;48.634;9.516;2022-12-07T09:01:52;13.20;;;7.93;;
8337;SDS011;4206;48.634;9.516;2022-12-07T09:04:18;12.53;;;8.20;;
8337;SDS011;4206;48.634;9.516;2022-12-07T09:06:45;10.40;;;7.63;;
8337;SDS011;4206;48.634;9.516;2022-12-07T09:09:11;14.97;;;7.70;;
8337;SDS011;4206;48.634;9.516;2022-12-07T09:11:38;11.20;;;7.10;;
8337;SDS011;4206;48.634;9.516;2022-12-07T09:14:04;12.53;;;7.93;;
8337;SDS011;4206;48.634;9.516;2022-12-07T09:16:30;12.47;;;7.50;;
8337;SDS011;4206;48.634;9.516;2022-12-07T09:18:56;11.67;;;7.33;;
8337;SDS011;4206;48.634;9.516;2022-12-07T09:21:22;14.27;;;7.50;;
8337;SDS011;4206;48.634;9.516;2022-12-07T09:23:48;9.87;;;6.87;;
8337;SDS011;4206;48.634;9.516;2022-12-07T09:26:14;13.87;;;7.17;;
8337;SDS011;4206;48.634;9.516;2022-12-07T09:28:40;16.70;;;6.87;;
8337;SDS011;4206;48.634;9.516;2022-12-07T09:31:06;12.90;;;6.90;;
8337;SDS011;4206;48.634;9.516;2022-12-07T09:33:32;12.00;;;6.60;;
8337;SDS011;4206;48.634;9.516;2022-12-07T09:35:58;8.90;;;6.17;;
8337;SDS011;4206;48.634;9.516;2022-12-07T09:38:24;8.87;;;6.60;;
8337;SDS011;4206;48.634;9.516;2022-12-07T09:40:51;15.63;;;6.10;;
8337;SDS011;4206;48.634;9.516;2022-12-07T09:43:19;9.17;;;6.07;;
8337;SDS011;4206;48.634;9.516;2022-12-07T09:45:46;9.43;;;5.87;;
8337;SDS011;4206;48.634;9.516;2022-12-07T09:48:15;8.80;;;6.00;;
8337;SDS011;4206;48.634;9.516;2022-12-07T09:50:42;9.00;;;5.03;;
8337;SDS011;4206;48.634;9.516;2022-12-07T09:53:11;8.23;;;4.83;;
8337;SDS011;4206;48.634;9.516;2022-12-07T09:55:38;7.43;;;5.40;;
8337;SDS011;4206;48.634;9.516;2022-12-07T09:58:08;9.63;;;5.00;;
8337;SDS011;4206;48.634;9.516;2022-12-07T10:00:34;7.97;;;4.90;;
8337;SDS011;4206;48.634;9.516;2022-12-07T10:03:01;6.43;;;4.20;;
8337;SDS011;4206;48.634;9.516;2022-12-07T10:05:30;8.57;;;4.83;;
8337;SDS011;4206;48.634;9.516;2022-12-07T10:07:56;11.40;;;4.60;;
8337;SDS011;4206;48.634;9.516;2022-12-07T10:10:23;6.33;;;4.17;;
8337;SDS011;4206;48.634;9.516;2022-12-07T10:12:54;7.33;;;5.07;;
8337;SDS011;4206;48.634;9.516;2022-12-07T10:15:20;6.00;;;4.30;;
8337;SDS011;4206;48.634;9.516;2022-12-07T10:17:47;6.40;;;4.57;;
8337;SDS011;4206;48.634;9.516;2022-12-07T10:25:26;7.43;;;4.53;;
8337;SDS011;4206;48.634;9.516;2022-12-07T10:28:02;6.17;;;4.03;;
8337;SDS011;4206;48.634;9.516;2022-12-07T10:30:29;4.60;;;3.40;;
8337;SDS011;4206;48.634;9.516;2022-12-07T10:32:56;4.37;;;3.27;;
8337;SDS011;4206;48.634;9.516;2022-12-07T10:35:24;9.93;;;5.90;;
8337;SDS011;4206;48.634;9.516;2022-12-07T10:37:51;18.40;;;8.57;;
8337;SDS011;4206;48.634;9.516;2022-12-07T10:43:01;3.83;;;2.93;;
8337;SDS011;4206;48.634;9.516;2022-12-07T10:45:27;11.93;;;3.73;;
8337;SDS011;4206;48.634;9.516;2022-12-07T10:50:41;12.87;;;6.30;;
8337;SDS011;4206;48.634;9.516;2022-12-07T10:53:16;6.47;;;4.20;;
8337;SDS011;4206;48.634;9.516;2022-12-07T11:00:43;4.37;;;2.90;;
8337;SDS011;4206;48.634;9.516;2022-12-07T11:11:09;4.77;;;3.60;;
8337;SDS011;4206;48.634;9.516;2022-12-07T11:21:30;9.50;;;5.07;;
8337;SDS011;4206;48.634;9.516;2022-12-07T11:24:08;10.93;;;6.03;;
8337;SDS011;4206;48.634;9.516;2022-12-07T11:29:09;12.73;;;4.83;;
8337;SDS011;4206;48.634;9.516;2022-12-07T11:34:08;7.87;;;4.17;;
8337;SDS011;4206;48.634;9.516;2022-12-07T11:36:45;8.47;;;4.60;;
8337;SDS011;4206;48.634;9.516;2022-12-07T11:41:46;8.23;;;5.03;;
8337;SDS011;4206;48.634;9.516;2022-12-07T11:46:56;7.30;;;3.80;;
8337;SDS011;4206;48.634;9.516;2022-12-07T11:49:32;6.23;;;3.50;;
8337;SDS011;4206;48.634;9.516;2022-12-07T11:52:03;8.67;;;4.30;;
8337;SDS011;4206;48.634;9.516;2022-12-07T11:54:32;19.30;;;8.50;;
8337;SDS011;4206;48.634;9.516;2022-12-07T11:57:02;6.50;;;4.30;;
8337;SDS011;4206;48.634;9.516;2022-12-07T11:59:31;5.17;;;3.70;;
8337;SDS011;4206;48.634;9.516;2022-12-07T12:04:34;12.43;;;5.80;;
8337;SDS011;4206;48.634;9.516;2022-12-07T12:07:05;6.07;;;4.40;;
8337;SDS011;4206;48.634;9.516;2022-12-07T12:09:34;13.57;;;6.83;;
8337;SDS011;4206;48.634;9.516;2022-12-07T12:14:48;5.93;;;3.83;;
8337;SDS011;4206;48.634;9.516;2022-12-07T12:22:34;10.40;;;6.20;;
8337;SDS011;4206;48.634;9.516;2022-12-07T12:25:03;7.30;;;4.33;;
8337;SDS011;4206;48.634;9.516;2022-12-07T12:27:31;6.77;;;3.40;;
8337;SDS011;4206;48.634;9.516;2022-12-07T12:30:00;17.13;;;5.43;;
8337;SDS011;4206;48.634;9.516;2022-12-07T12:37:51;5.60;;;3.50;;
8337;SDS011;4206;48.634;9.516;2022-12-07T12:42:51;28.80;;;10.83;;
8337;SDS011;4206;48.634;9.516;2022-12-07T12:52:56;7.70;;;3.97;;
8337;SDS011;4206;48.634;9.516;2022-12-07T12:58:21;11.80;;;5.90;;
8337;SDS011;4206;48.634;9.516;2022-12-07T13:00:48;6.13;;;3.57;;
8337;SDS011;4206;48.634;9.516;2022-12-07T13:03:33;11.23;;;5.90;;
8337;SDS011;4206;48.634;9.516;2022-12-07T13:08:40;6.50;;;3.77;;
8337;SDS011;4206;48.634;9.516;2022-12-07T13:13:48;8.40;;;4.50;;
8337;SDS011;4206;48.634;9.516;2022-12-07T13:18:41;7.43;;;4.80;;
8337;SDS011;4206;48.634;9.516;2022-12-07T13:28:43;8.60;;;5.83;;
8337;SDS011;4206;48.634;9.516;2022-12-07T13:33:50;10.00;;;5.70;;
8337;SDS011;4206;48.634;9.516;2022-12-07T13:36:20;5.43;;;3.90;;
8337;SDS011;4206;48.634;9.516;2022-12-07T13:38:49;6.73;;;4.37;;
8337;SDS011;4206;48.634;9.516;2022-12-07T13:41:16;6.77;;;3.70;;
8337;SDS011;4206;48.634;9.516;2022-12-07T13:43:43;6.73;;;4.07;;
8337;SDS011;4206;48.634;9.516;2022-12-07T13:46:10;6.93;;;4.13;;
8337;SDS011;4206;48.634;9.516;2022-12-07T13:48:44;5.80;;;3.50;;
8337;SDS011;4206;48.634;9.516;2022-12-07T13:51:17;7.80;;;5.07;;
8337;SDS011;4206;48.634;9.516;2022-12-07T13:56:27;11.53;;;3.40;;
8337;SDS011;4206;48.634;9.516;2022-12-07T13:58:54;7.17;;;4.03;;
8337;SDS011;4206;48.634;9.516;2022-12-07T14:01:21;8.73;;;5.00;;
8337;SDS011;4206;48.634;9.516;2022-12-07T14:03:47;7.40;;;4.70;;
8337;SDS011;4206;48.634;9.516;2022-12-07T14:06:16;7.80;;;4.27;;
8337;SDS011;4206;48.634;9.516;2022-12-07T14:08:42;5.10;;;3.27;;
8337;SDS011;4206;48.634;9.516;2022-12-07T14:11:11;8.73;;;4.93;;
8337;SDS011;4206;48.634;9.516;2022-12-07T14:16:22;5.33;;;3.43;;
8337;SDS011;4206;48.634;9.516;2022-12-07T14:18:50;5.30;;;3.87;;
8337;SDS011;4206;48.634;9.516;2022-12-07T14:21:17;5.50;;;3.47;;
8337;SDS011;4206;48.634;9.516;2022-12-07T14:23:44;11.73;;;6.13;;
8337;SDS011;4206;48.634;9.516;2022-12-07T14:26:11;11.97;;;5.63;;
8337;SDS011;4206;48.634;9.516;2022-12-07T14:28:38;9.00;;;5.63;;
8337;SDS011;4206;48.634;9.516;2022-12-07T14:33:46;5.33;;;3.30;;
8337;SDS011;4206;48.634;9.516;2022-12-07T14:36:13;7.30;;;4.40;;
8337;SDS011;4206;48.634;9.516;2022-12-07T14:38:39;9.33;;;4.80;;
8337;SDS011;4206;48.634;9.516;2022-12-07T14:41:06;10.83;;;4.87;;
8337;SDS011;4206;48.634;9.516;2022-12-07T14:43:51;9.27;;;3.90;;
8337;SDS011;4206;48.634;9.516;2022-12-07T14:46:17;8.10;;;4.63;;
8337;SDS011;4206;48.634;9.516;2022-12-07T14:48:49;8.50;;;4.00;;
8337;SDS011;4206;48.634;9.516;2022-12-07T14:51:15;7.60;;;4.37;;
8337;SDS011;4206;48.634;9.516;2022-12-07T14:53:43;7.00;;;4.20;;
8337;SDS011;4206;48.634;9.516;2022-12-07T14:56:09;6.30;;;3.60;;
8337;SDS011;4206;48.634;9.516;2022-12-07T14:58:35;8.03;;;4.27;;
8337;SDS011;4206;48.634;9.516;2022-12-07T15:01:02;9.63;;;4.80;;
8337;SDS011;4206;48.634;9.516;2022-12-07T15:03:28;7.90;;;4.97;;
8337;SDS011;4206;48.634;9.516;2022-12-07T15:05:54;8.40;;;5.37;;
8337;SDS011;4206;48.634;9.516;2022-12-07T15:08:21;13.27;;;5.83;;
8337;SDS011;4206;48.634;9.516;2022-12-07T15:10:47;8.20;;;5.70;;
8337;SDS011;4206;48.634;9.516;2022-12-07T15:13:13;10.50;;;6.13;;
8337;SDS011;4206;48.634;9.516;2022-12-07T15:15:54;8.90;;;5.90;;
8337;SDS011;4206;48.634;9.516;2022-12-07T15:18:22;11.63;;;5.70;;
8337;SDS011;4206;48.634;9.516;2022-12-07T15:20:48;7.63;;;5.50;;
8337;SDS011;4206;48.634;9.516;2022-12-07T15:23:14;7.53;;;5.17;;
8337;SDS011;4206;48.634;9.516;2022-12-07T15:25:41;8.00;;;5.40;;
8337;SDS011;4206;48.634;9.516;2022-12-07T15:28:08;8.90;;;5.67;;
8337;SDS011;4206;48.634;9.516;2022-12-07T15:30:36;10.23;;;5.30;;
8337;SDS011;4206;48.634;9.516;2022-12-07T15:33:02;7.83;;;6.00;;
8337;SDS011;4206;48.634;9.516;2022-12-07T15:35:28;12.67;;;5.50;;
8337;SDS011;4206;48.634;9.516;2022-12-07T15:37:54;8.47;;;5.20;;
8337;SDS011;4206;48.634;9.516;2022-12-07T15:40:20;10.40;;;5.70;;
8337;SDS011;4206;48.634;9.516;2022-12-07T15:42:46;9.23;;;6.30;;
8337;SDS011;4206;48.634;9.516;2022-12-07T15:45:12;9.53;;;6.60;;
8337;SDS011;4206;48.634;9.516;2022-12-07T15:47:40;14.07;;;7.67;;
8337;SDS011;4206;48.634;9.516;2022-12-07T15:50:07;16.43;;;9.40;;
8337;SDS011;4206;48.634;9.516;2022-12-07T15:52:34;19.50;;;9.20;;
8337;SDS011;4206;48.634;9.516;2022-12-07T15:55:00;13.50;;;8.77;;
8337;SDS011;4206;48.634;9.516;2022-12-07T15:57:28;14.00;;;7.87;;
8337;SDS011;4206;48.634;9.516;2022-12-07T15:59:54;17.87;;;7.17;;
8337;SDS011;4206;48.634;9.516;2022-12-07T16:02:20;12.17;;;7.37;;
8337;SDS011;4206;48.634;9.516;2022-12-07T16:04:47;10.20;;;6.43;;
8337;SDS011;4206;48.634;9.516;2022-12-07T16:07:13;11.37;;;5.73;;
8337;SDS011;4206;48.634;9.516;2022-12-07T16:09:41;12.03;;;6.67;;
8337;SDS011;4206;48.634;9.516;2022-12-07T16:12:07;14.70;;;6.53;;
8337;SDS011;4206;48.634;9.516;2022-12-07T16:14:33;13.33;;;8.20;;
8337;SDS011;4206;48.634;9.516;2022-12-07T16:16:59;17.63;;;9.27;;
8337;SDS011;4206;48.634;9.516;2022-12-07T16:19:25;17.97;;;8.83;;
8337;SDS011;4206;48.634;9.516;2022-12-07T16:21:51;16.40;;;9.00;;
8337;SDS011;4206;48.634;9.516;2022-12-07T16:24:18;12.83;;;6.27;;
8337;SDS011;4206;48.634;9.516;2022-12-07T16:26:44;11.57;;;6.17;;
8337;SDS011;4206;48.634;9.516;2022-12-07T16:29:11;12.40;;;7.73;;
8337;SDS011;4206;48.634;9.516;2022-12-07T16:31:37;10.70;;;7.27;;
8337;SDS011;4206;48.634;9.516;2022-12-07T16:34:03;15.50;;;7.40;;
8337;SDS011;4206;48.634;9.516;2022-12-07T16:36:29;11.50;;;7.93;;
8337;SDS011;4206;48.634;9.516;2022-12-07T16:38:57;12.80;;;7.90;;
8337;SDS011;4206;48.634;9.516;2022-12-07T16:41:23;11.40;;;7.70;;
8337;SDS011;4206;48.634;9.516;2022-12-07T16:43:49;21.53;;;13.57;;
8337;SDS011;4206;48.634;9.516;2022-12-07T16:46:16;11.93;;;8.37;;
8337;SDS011;4206;48.634;9.516;2022-12-07T16:48:42;15.70;;;7.97;;
8337;SDS011;4206;48.634;9.516;2022-12-07T16:51:08;11.60;;;7.30;;
8337;SDS011;4206;48.634;9.516;2022-12-07T16:53:35;12.53;;;7.90;;
8337;SDS011;4206;48.634;9.516;2022-12-07T16:56:01;15.83;;;8.00;;
8337;SDS011;4206;48.634;9.516;2022-12-07T16:58:28;14.00;;;7.50;;
8337;SDS011;4206;48.634;9.516;2022-12-07T17:00:54;14.17;;;8.73;;
8337;SDS011;4206;48.634;9.516;2022-12-07T17:03:20;15.57;;;8.60;;